createdAt,value
2017-07-19T00:00:08.846Z,23.9
2017-07-19T00:01:16.937Z,23.8
2017-07-19T00:02:25.028Z,23.8
2017-07-19T00:03:33.173Z,23.9
2017-07-19T00:04:41.295Z,23.9
2017-07-19T00:05:49.293Z,23.9
2017-07-19T00:06:57.385Z,23.9
2017-07-19T00:08:05.479Z,23.9
2017-07-19T00:09:13.565Z,23.9
2017-07-19T00:10:21.657Z,23.9
2017-07-19T00:11:29.746Z,23.9
2017-07-19T00:12:37.836Z,23.8
2017-07-19T00:13:45.922Z,23.8
2017-07-19T00:14:54.012Z,23.9
2017-07-19T00:16:02.102Z,24.0
2017-07-19T00:17:10.193Z,23.9
2017-07-19T00:18:18.278Z,23.9
2017-07-19T00:19:26.368Z,23.8
2017-07-19T00:20:34.532Z,23.8
2017-07-19T00:21:42.547Z,23.8
2017-07-19T00:22:50.635Z,23.8
2017-07-19T00:23:58.726Z,23.8
2017-07-19T00:25:06.816Z,23.8
2017-07-19T00:26:14.903Z,23.8
2017-07-19T00:27:22.995Z,23.7
2017-07-19T00:28:31.083Z,23.8
2017-07-19T00:29:39.172Z,23.7
2017-07-19T00:30:47.259Z,23.8
2017-07-19T00:31:55.348Z,23.8
2017-07-19T00:33:03.437Z,23.8
2017-07-19T00:34:11.526Z,23.8
2017-07-19T00:35:19.614Z,23.8
2017-07-19T00:36:27.704Z,23.8
2017-07-19T00:37:35.825Z,23.8
2017-07-19T00:38:43.882Z,23.7
2017-07-19T00:39:51.968Z,23.7
2017-07-19T00:41:00.056Z,23.7
2017-07-19T00:42:08.147Z,23.7
2017-07-19T00:43:16.237Z,23.7
2017-07-19T00:44:24.326Z,23.7
2017-07-19T00:45:32.412Z,23.7
2017-07-19T00:46:40.502Z,23.7
2017-07-19T00:47:48.590Z,23.7
2017-07-19T00:48:56.679Z,23.7
2017-07-19T00:50:04.766Z,23.7
2017-07-19T00:51:12.856Z,23.7
2017-07-19T00:52:20.946Z,23.6
2017-07-19T00:53:29.035Z,23.7
2017-07-19T00:54:37.152Z,23.7
2017-07-19T00:55:45.237Z,23.7
2017-07-19T00:56:53.300Z,23.7
2017-07-19T00:58:01.392Z,23.7
2017-07-19T00:59:09.476Z,23.6
2017-07-19T01:00:17.565Z,23.6
2017-07-19T01:01:25.675Z,23.6
2017-07-19T01:02:33.747Z,23.6
2017-07-19T01:03:41.832Z,23.6
2017-07-19T01:04:49.945Z,23.7
2017-07-19T01:05:58.010Z,23.6
2017-07-19T01:07:06.122Z,23.7
2017-07-19T01:08:14.185Z,23.6
2017-07-19T01:09:22.275Z,23.6
2017-07-19T01:10:30.362Z,23.5
2017-07-19T01:11:38.514Z,23.6
2017-07-19T01:12:46.541Z,23.6
2017-07-19T01:13:54.630Z,23.6
2017-07-19T01:15:02.717Z,23.5
2017-07-19T01:16:10.808Z,23.6
2017-07-19T01:17:18.898Z,23.6
2017-07-19T01:18:26.984Z,23.6
2017-07-19T01:19:35.072Z,23.6
2017-07-19T01:20:43.162Z,23.5
2017-07-19T01:21:51.256Z,23.5
2017-07-19T01:22:59.346Z,23.5
2017-07-19T01:24:07.435Z,23.5
2017-07-19T01:25:15.523Z,23.6
2017-07-19T01:26:23.613Z,23.5
2017-07-19T01:27:31.698Z,23.5
2017-07-19T01:28:39.877Z,23.5
2017-07-19T01:29:47.877Z,23.6
2017-07-19T01:30:55.965Z,23.5
2017-07-19T01:32:04.056Z,23.5
2017-07-19T01:33:12.143Z,23.5
2017-07-19T01:34:20.233Z,23.6
2017-07-19T01:35:28.322Z,23.5
2017-07-19T01:36:36.408Z,23.5
2017-07-19T01:37:44.496Z,23.5
2017-07-19T01:38:52.587Z,23.5
2017-07-19T01:40:00.679Z,23.5
2017-07-19T01:41:08.764Z,23.4
2017-07-19T01:42:16.851Z,23.5
2017-07-19T01:43:24.965Z,23.4
2017-07-19T01:44:33.028Z,23.4
2017-07-19T01:45:41.160Z,23.5
2017-07-19T01:46:49.205Z,23.5
2017-07-19T01:47:57.291Z,23.5
2017-07-19T01:49:05.383Z,23.5
2017-07-19T01:50:13.472Z,23.5
2017-07-19T01:51:21.562Z,23.4
2017-07-19T01:52:29.649Z,23.5
2017-07-19T01:53:37.739Z,23.4
2017-07-19T01:54:45.827Z,23.3
2017-07-19T01:55:53.913Z,23.4
2017-07-19T01:57:02.002Z,23.5
2017-07-19T01:58:10.093Z,23.4
2017-07-19T01:59:18.181Z,23.5
2017-07-19T02:00:26.270Z,23.4
2017-07-19T02:01:34.360Z,23.4
2017-07-19T02:02:42.532Z,23.4
2017-07-19T02:03:50.537Z,23.4
2017-07-19T02:04:58.624Z,23.4
2017-07-19T02:06:06.723Z,23.4
2017-07-19T02:07:14.810Z,23.4
2017-07-19T02:08:22.898Z,23.4
2017-07-19T02:09:30.984Z,23.4
2017-07-19T02:10:39.074Z,23.4
2017-07-19T02:11:47.164Z,23.4
2017-07-19T02:12:55.252Z,23.4
2017-07-19T02:14:03.339Z,23.4
2017-07-19T02:15:11.425Z,23.3
2017-07-19T02:16:19.515Z,23.3
2017-07-19T02:17:27.605Z,23.3
2017-07-19T02:18:35.700Z,23.3
2017-07-19T02:19:43.867Z,23.3
2017-07-19T02:20:51.876Z,23.3
2017-07-19T02:21:59.965Z,23.4
2017-07-19T02:23:08.054Z,23.3
2017-07-19T02:24:16.163Z,23.3
2017-07-19T02:25:24.228Z,23.4
2017-07-19T02:26:32.318Z,23.3
2017-07-19T02:27:40.406Z,23.3
2017-07-19T02:28:48.495Z,23.4
2017-07-19T02:29:56.584Z,23.3
2017-07-19T02:31:04.672Z,23.3
2017-07-19T02:32:12.760Z,23.3
2017-07-19T02:33:20.847Z,23.3
2017-07-19T02:34:28.937Z,23.3
2017-07-19T02:35:37.025Z,23.2
2017-07-19T02:36:45.117Z,23.3
2017-07-19T02:37:53.203Z,23.3
2017-07-19T02:39:01.291Z,23.3
2017-07-19T02:40:09.381Z,23.2
2017-07-19T02:41:17.466Z,23.3
2017-07-19T02:42:25.557Z,23.3
2017-07-19T02:43:33.642Z,23.3
2017-07-19T02:44:41.729Z,23.3
2017-07-19T02:45:49.817Z,23.2
2017-07-19T02:46:57.907Z,23.2
2017-07-19T02:48:06.004Z,23.3
2017-07-19T02:49:14.084Z,23.3
2017-07-19T02:50:22.173Z,23.2
2017-07-19T02:51:30.267Z,23.2
2017-07-19T02:52:38.349Z,23.2
2017-07-19T02:53:46.532Z,23.2
2017-07-19T02:54:54.525Z,23.2
2017-07-19T02:56:02.622Z,23.2
2017-07-19T02:57:10.708Z,23.1
2017-07-19T02:58:18.798Z,23.2
2017-07-19T02:59:26.884Z,23.1
2017-07-19T03:00:34.975Z,23.2
2017-07-19T03:01:43.062Z,23.2
2017-07-19T03:02:51.152Z,23.2
2017-07-19T03:03:59.241Z,23.2
2017-07-19T03:05:07.361Z,23.1
2017-07-19T03:06:15.416Z,23.2
2017-07-19T03:07:23.504Z,23.2
2017-07-19T03:08:31.594Z,23.1
2017-07-19T03:09:39.682Z,23.1
2017-07-19T03:10:47.804Z,23.1
2017-07-19T03:11:55.857Z,23.2
2017-07-19T03:13:03.946Z,23.2
2017-07-19T03:14:12.033Z,23.2
2017-07-19T03:15:20.137Z,23.1
2017-07-19T03:16:28.210Z,23.2
2017-07-19T03:17:36.298Z,23.1
2017-07-19T03:18:44.390Z,23.2
2017-07-19T03:19:52.478Z,23.1
2017-07-19T03:21:00.564Z,23.1
2017-07-19T03:22:08.652Z,23.1
2017-07-19T03:23:16.742Z,23.1
2017-07-19T03:24:24.829Z,23.1
2017-07-19T03:25:32.919Z,23.1
2017-07-19T03:26:41.006Z,23.1
2017-07-19T03:27:49.095Z,23.1
2017-07-19T03:28:57.185Z,23.1
2017-07-19T03:30:05.272Z,23.1
2017-07-19T03:31:13.361Z,23.1
2017-07-19T03:32:21.448Z,23.1
2017-07-19T03:33:29.537Z,23.1
2017-07-19T03:34:37.649Z,23.1
2017-07-19T03:35:45.712Z,23.1
2017-07-19T03:36:53.802Z,23.1
2017-07-19T03:38:01.888Z,23.1
2017-07-19T03:39:09.976Z,23.0
2017-07-19T03:40:18.068Z,23.1
2017-07-19T03:41:26.154Z,23.1
2017-07-19T03:42:34.246Z,23.0
2017-07-19T03:43:42.333Z,23.0
2017-07-19T03:44:50.418Z,22.9
2017-07-19T03:45:58.507Z,23.0
2017-07-19T03:47:06.600Z,23.0
2017-07-19T03:48:14.684Z,23.0
2017-07-19T03:49:22.778Z,22.9
2017-07-19T03:50:30.864Z,22.9
2017-07-19T03:51:38.953Z,23.0
2017-07-19T03:52:47.042Z,22.9
2017-07-19T03:53:55.134Z,23.0
2017-07-19T03:55:03.215Z,23.0
2017-07-19T03:56:11.305Z,23.0
2017-07-19T03:57:19.395Z,23.0
2017-07-19T03:58:27.484Z,23.0
2017-07-19T03:59:35.573Z,23.0
2017-07-19T04:00:43.659Z,23.0
2017-07-19T04:01:51.805Z,23.0
2017-07-19T04:02:59.837Z,23.0
2017-07-19T04:04:07.925Z,23.1
2017-07-19T04:05:16.013Z,23.1
2017-07-19T04:06:24.099Z,23.0
2017-07-19T04:07:32.208Z,23.0
2017-07-19T04:08:40.277Z,23.1
2017-07-19T04:09:48.365Z,23.0
2017-07-19T04:10:56.453Z,23.0
2017-07-19T04:12:04.543Z,22.9
2017-07-19T04:13:12.631Z,23.0
2017-07-19T04:14:20.720Z,23.0
2017-07-19T04:15:28.814Z,23.1
2017-07-19T04:16:36.896Z,23.1
2017-07-19T04:17:44.987Z,23.0
2017-07-19T04:18:53.105Z,23.0
2017-07-19T04:20:01.164Z,23.0
2017-07-19T04:21:09.250Z,23.0
2017-07-19T04:22:17.339Z,23.0
2017-07-19T04:23:25.493Z,23.0
2017-07-19T04:24:33.516Z,23.0
2017-07-19T04:25:41.605Z,23.0
2017-07-19T04:26:49.694Z,23.1
2017-07-19T04:27:57.782Z,23.1
2017-07-19T04:29:05.894Z,23.1
2017-07-19T04:30:13.960Z,23.0
2017-07-19T04:31:22.050Z,23.1
2017-07-19T04:32:30.145Z,23.1
2017-07-19T04:33:38.225Z,23.0
2017-07-19T04:34:46.313Z,23.0
2017-07-19T04:35:54.412Z,23.0
2017-07-19T04:37:02.506Z,23.0
2017-07-19T04:38:10.592Z,23.0
2017-07-19T04:39:18.677Z,23.0
2017-07-19T04:40:26.768Z,23.1
2017-07-19T04:41:34.858Z,23.0
2017-07-19T04:42:43.180Z,23.0
2017-07-19T04:43:51.041Z,23.0
2017-07-19T04:44:59.134Z,23.0
2017-07-19T04:46:07.217Z,23.0
2017-07-19T04:47:15.307Z,23.1
2017-07-19T04:48:23.397Z,23.0
2017-07-19T04:49:31.657Z,23.1
2017-07-19T04:50:39.575Z,22.9
2017-07-19T04:51:47.663Z,23.0
2017-07-19T04:52:55.768Z,23.0
2017-07-19T04:54:03.843Z,23.0
2017-07-19T04:55:11.930Z,22.9
2017-07-19T04:56:20.017Z,22.9
2017-07-19T04:57:28.108Z,23.0
2017-07-19T04:58:36.194Z,23.0
2017-07-19T04:59:44.283Z,22.9
2017-07-19T05:00:52.372Z,23.0
2017-07-19T05:02:00.466Z,23.0
2017-07-19T05:03:08.552Z,23.0
2017-07-19T05:04:16.647Z,23.0
2017-07-19T05:05:24.725Z,23.0
2017-07-19T05:06:32.850Z,23.0
2017-07-19T05:07:40.904Z,22.9
2017-07-19T05:08:48.993Z,23.0
2017-07-19T05:09:57.089Z,22.9
2017-07-19T05:11:05.174Z,22.9
2017-07-19T05:12:13.261Z,23.0
2017-07-19T05:13:21.349Z,23.0
2017-07-19T05:14:29.437Z,23.0
2017-07-19T05:15:37.524Z,22.9
2017-07-19T05:16:45.614Z,23.0
2017-07-19T05:17:53.701Z,23.0
2017-07-19T05:19:01.793Z,23.0
2017-07-19T05:20:09.881Z,22.9
2017-07-19T05:21:17.967Z,22.9
2017-07-19T05:22:26.060Z,22.9
2017-07-19T05:23:34.151Z,22.9
2017-07-19T05:24:42.238Z,22.9
2017-07-19T05:25:50.326Z,22.9
2017-07-19T05:26:58.437Z,22.9
2017-07-19T05:28:06.505Z,23.0
2017-07-19T05:29:14.591Z,22.9
2017-07-19T05:30:22.679Z,22.9
2017-07-19T05:31:30.770Z,22.9
2017-07-19T05:32:38.860Z,23.0
2017-07-19T05:33:46.946Z,23.0
2017-07-19T05:34:55.035Z,23.1
2017-07-19T05:36:03.130Z,22.9
2017-07-19T05:37:11.218Z,23.0
2017-07-19T05:38:19.306Z,23.0
2017-07-19T05:39:27.402Z,23.0
2017-07-19T05:40:35.488Z,23.0
2017-07-19T05:41:43.576Z,23.0
2017-07-19T05:42:51.668Z,22.9
2017-07-19T05:43:59.756Z,22.9
2017-07-19T05:45:07.845Z,23.0
2017-07-19T05:46:15.936Z,23.0
2017-07-19T05:47:24.024Z,22.9
2017-07-19T05:48:32.112Z,22.9
2017-07-19T05:49:40.199Z,22.9
2017-07-19T05:50:48.287Z,23.0
2017-07-19T05:51:56.377Z,22.9
2017-07-19T05:53:04.468Z,22.9
2017-07-19T05:54:12.581Z,23.0
2017-07-19T05:55:20.643Z,23.0
2017-07-19T05:56:28.733Z,23.0
2017-07-19T05:57:36.822Z,23.0
2017-07-19T05:58:44.911Z,22.9
2017-07-19T05:59:52.997Z,23.0
2017-07-19T06:01:01.089Z,22.9
2017-07-19T06:02:09.178Z,22.9
2017-07-19T06:03:17.264Z,22.9
2017-07-19T06:04:25.353Z,22.9
2017-07-19T06:05:33.443Z,23.0
2017-07-19T06:06:41.531Z,23.0
2017-07-19T06:07:49.622Z,23.0
2017-07-19T06:08:57.708Z,23.0
2017-07-19T06:10:05.798Z,22.9
2017-07-19T06:11:13.891Z,22.9
2017-07-19T06:12:21.976Z,22.9
2017-07-19T06:13:30.064Z,22.9
2017-07-19T06:14:38.154Z,23.0
2017-07-19T06:15:46.243Z,23.0
2017-07-19T06:16:54.331Z,23.0
2017-07-19T06:18:02.418Z,23.0
2017-07-19T06:19:10.508Z,22.9
2017-07-19T06:20:18.596Z,22.9
2017-07-19T06:21:26.685Z,22.9
2017-07-19T06:22:34.775Z,23.0
2017-07-19T06:23:42.863Z,22.9
2017-07-19T06:24:50.978Z,22.9
2017-07-19T06:25:59.039Z,23.1
2017-07-19T06:27:07.128Z,23.0
2017-07-19T06:28:15.219Z,23.0
2017-07-19T06:29:23.305Z,23.0
2017-07-19T06:30:31.392Z,22.9
2017-07-19T06:31:39.483Z,22.9
2017-07-19T06:32:47.573Z,23.0
2017-07-19T06:33:55.659Z,23.1
2017-07-19T06:35:03.751Z,23.0
2017-07-19T06:36:11.836Z,22.9
2017-07-19T06:37:19.924Z,23.0
2017-07-19T06:38:28.013Z,23.1
2017-07-19T06:39:36.100Z,23.0
2017-07-19T06:40:44.190Z,22.9
2017-07-19T06:41:52.278Z,23.0
2017-07-19T06:43:00.368Z,23.0
2017-07-19T06:44:08.455Z,23.0
2017-07-19T06:45:16.546Z,23.0
2017-07-19T06:46:24.634Z,22.9
2017-07-19T06:47:32.731Z,22.9
2017-07-19T06:48:40.810Z,22.9
2017-07-19T06:49:48.894Z,23.0
2017-07-19T06:50:56.985Z,23.0
2017-07-19T06:52:05.125Z,22.9
2017-07-19T06:53:13.164Z,22.9
2017-07-19T06:54:21.253Z,23.0
2017-07-19T06:55:29.340Z,22.9
2017-07-19T06:56:37.432Z,22.9
2017-07-19T06:57:45.519Z,22.9
2017-07-19T06:58:53.605Z,23.0
2017-07-19T07:00:01.694Z,23.0
2017-07-19T07:01:09.788Z,23.0
2017-07-19T07:02:17.876Z,23.0
2017-07-19T07:03:25.966Z,23.0
2017-07-19T07:04:34.053Z,23.0
2017-07-19T07:05:42.144Z,22.9
2017-07-19T07:06:50.231Z,23.0
2017-07-19T07:07:58.317Z,22.9
2017-07-19T07:09:06.431Z,23.0
2017-07-19T07:10:14.497Z,23.0
2017-07-19T07:11:22.588Z,23.1
2017-07-19T07:12:30.674Z,23.0
2017-07-19T07:13:38.765Z,23.0
2017-07-19T07:14:46.854Z,23.1
2017-07-19T07:15:54.938Z,23.0
2017-07-19T07:17:03.027Z,23.1
2017-07-19T07:18:11.116Z,23.1
2017-07-19T07:19:19.202Z,23.1
2017-07-19T07:20:27.292Z,23.1
2017-07-19T07:21:35.382Z,23.1
2017-07-19T07:22:43.470Z,23.1
2017-07-19T07:23:51.560Z,23.1
2017-07-19T07:24:59.647Z,23.1
2017-07-19T07:26:07.736Z,23.0
2017-07-19T07:27:15.822Z,23.1
2017-07-19T07:28:23.913Z,23.1
2017-07-19T07:29:32.001Z,23.1
2017-07-19T07:30:40.088Z,23.0
2017-07-19T07:31:48.176Z,23.1
2017-07-19T07:32:56.267Z,23.1
2017-07-19T07:34:04.354Z,23.1
2017-07-19T07:35:12.442Z,23.1
2017-07-19T07:36:20.530Z,23.1
2017-07-19T07:37:28.619Z,23.1
2017-07-19T07:38:36.706Z,23.1
2017-07-19T07:39:44.795Z,23.1
2017-07-19T07:40:52.885Z,23.1
2017-07-19T07:42:00.977Z,23.1
2017-07-19T07:43:09.109Z,23.1
2017-07-19T07:44:17.155Z,23.1
2017-07-19T07:45:25.244Z,23.2
2017-07-19T07:46:33.332Z,23.2
2017-07-19T07:47:41.421Z,23.2
2017-07-19T07:48:49.508Z,23.1
2017-07-19T07:49:57.597Z,23.2
2017-07-19T07:51:05.715Z,23.1
2017-07-19T07:52:13.775Z,23.1
2017-07-19T07:53:21.866Z,23.1
2017-07-19T07:54:29.953Z,23.2
2017-07-19T07:55:38.042Z,23.2
2017-07-19T07:56:46.130Z,23.1
2017-07-19T07:57:54.218Z,23.2
2017-07-19T07:59:02.307Z,23.1
2017-07-19T08:00:10.420Z,23.2
2017-07-19T08:01:18.484Z,23.2
2017-07-19T08:02:26.573Z,23.2
2017-07-19T08:03:34.665Z,23.3
2017-07-19T08:04:42.753Z,23.3
2017-07-19T08:05:50.841Z,23.3
2017-07-19T08:06:58.930Z,23.3
2017-07-19T08:08:07.019Z,23.3
2017-07-19T08:09:15.105Z,23.3
2017-07-19T08:10:23.195Z,23.3
2017-07-19T08:11:31.285Z,23.3
2017-07-19T08:12:39.375Z,23.3
2017-07-19T08:13:47.464Z,23.4
2017-07-19T08:14:55.552Z,23.3
2017-07-19T08:16:03.639Z,23.3
2017-07-19T08:17:11.730Z,23.3
2017-07-19T08:18:19.819Z,23.4
2017-07-19T08:19:27.909Z,23.4
2017-07-19T08:20:35.996Z,23.3
2017-07-19T08:21:44.087Z,23.3
2017-07-19T08:22:52.176Z,23.3
2017-07-19T08:24:00.267Z,23.3
2017-07-19T08:25:08.356Z,23.3
2017-07-19T08:26:16.443Z,23.4
2017-07-19T08:27:24.535Z,23.4
2017-07-19T08:28:32.622Z,23.4
2017-07-19T08:29:40.712Z,23.4
2017-07-19T08:30:48.802Z,23.4
2017-07-19T08:31:56.913Z,23.4
2017-07-19T08:33:04.978Z,23.4
2017-07-19T08:34:13.067Z,23.2
2017-07-19T08:35:21.156Z,23.5
2017-07-19T08:36:29.251Z,23.4
2017-07-19T08:37:37.341Z,23.4
2017-07-19T08:38:45.431Z,23.4
2017-07-19T08:39:53.523Z,23.5
2017-07-19T08:41:01.609Z,23.5
2017-07-19T08:42:09.701Z,23.4
2017-07-19T08:43:17.786Z,23.5
2017-07-19T08:44:25.877Z,23.5
2017-07-19T08:45:33.967Z,23.4
2017-07-19T08:46:42.053Z,23.4
2017-07-19T08:47:50.144Z,23.5
2017-07-19T08:48:58.235Z,23.4
2017-07-19T08:50:06.324Z,23.5
2017-07-19T08:51:14.413Z,23.4
2017-07-19T08:52:22.503Z,23.5
2017-07-19T08:53:30.616Z,23.6
2017-07-19T08:54:38.678Z,23.5
2017-07-19T08:55:46.767Z,23.6
2017-07-19T08:56:54.856Z,23.5
2017-07-19T08:58:02.948Z,23.5
2017-07-19T08:59:11.035Z,23.6
2017-07-19T09:00:19.128Z,23.6
2017-07-19T09:01:27.214Z,23.6
2017-07-19T09:02:35.303Z,23.5
2017-07-19T09:03:43.392Z,23.5
2017-07-19T09:04:51.484Z,23.6
2017-07-19T09:05:59.571Z,23.6
2017-07-19T09:07:07.659Z,23.5
2017-07-19T09:08:15.749Z,23.5
2017-07-19T09:09:23.837Z,23.5
2017-07-19T09:10:31.930Z,23.6
2017-07-19T09:11:40.018Z,23.7
2017-07-19T09:12:48.112Z,23.6
2017-07-19T09:13:56.205Z,23.6
2017-07-19T09:15:04.296Z,23.6
2017-07-19T09:16:12.382Z,23.7
2017-07-19T09:17:20.472Z,23.6
2017-07-19T09:18:28.562Z,23.7
2017-07-19T09:19:36.651Z,23.6
2017-07-19T09:20:44.740Z,23.6
2017-07-19T09:21:52.828Z,23.6
2017-07-19T09:23:00.916Z,23.8
2017-07-19T09:24:09.005Z,23.6
2017-07-19T09:25:17.096Z,23.6
2017-07-19T09:26:25.187Z,23.7
2017-07-19T09:27:33.282Z,23.7
2017-07-19T09:28:41.368Z,23.7
2017-07-19T09:29:49.457Z,23.7
2017-07-19T09:30:57.545Z,23.7
2017-07-19T09:32:05.658Z,23.7
2017-07-19T09:33:13.724Z,23.7
2017-07-19T09:34:21.814Z,23.7
2017-07-19T09:35:29.907Z,23.7
2017-07-19T09:36:37.993Z,23.8
2017-07-19T09:37:46.082Z,23.7
2017-07-19T09:38:54.193Z,23.8
2017-07-19T09:40:02.262Z,23.8
2017-07-19T09:41:10.350Z,23.8
2017-07-19T09:42:18.441Z,23.8
2017-07-19T09:43:26.530Z,23.8
2017-07-19T09:44:34.619Z,23.8
2017-07-19T09:45:42.710Z,23.8
2017-07-19T09:46:50.807Z,23.8
2017-07-19T09:47:58.895Z,23.8
2017-07-19T09:49:06.982Z,23.8
2017-07-19T09:50:15.071Z,23.8
2017-07-19T09:51:23.167Z,23.8
2017-07-19T09:52:31.250Z,23.9
2017-07-19T09:53:39.338Z,23.8
2017-07-19T09:54:47.431Z,23.8
2017-07-19T09:55:55.521Z,23.8
2017-07-19T09:57:03.608Z,23.8
2017-07-19T09:58:11.696Z,23.9
2017-07-19T09:59:19.789Z,23.8
2017-07-19T10:00:27.875Z,23.8
2017-07-19T10:01:35.965Z,23.8
2017-07-19T10:02:44.054Z,23.8
2017-07-19T10:03:52.145Z,23.9
2017-07-19T10:05:00.235Z,23.9
2017-07-19T10:06:08.326Z,23.8
2017-07-19T10:07:16.412Z,23.9
2017-07-19T10:08:24.501Z,23.9
2017-07-19T10:09:32.591Z,23.9
2017-07-19T10:10:40.680Z,24.0
2017-07-19T10:11:48.771Z,23.9
2017-07-19T10:12:56.859Z,23.9
2017-07-19T10:14:04.948Z,23.9
2017-07-19T10:15:13.038Z,23.9
2017-07-19T10:16:21.129Z,23.9
2017-07-19T10:17:29.219Z,23.9
2017-07-19T10:18:37.307Z,23.9
2017-07-19T10:19:45.395Z,23.9
2017-07-19T10:20:53.484Z,24.0
2017-07-19T10:22:01.577Z,23.9
2017-07-19T10:23:09.662Z,24.0
2017-07-19T10:24:17.753Z,23.9
2017-07-19T10:25:25.843Z,23.9
2017-07-19T10:26:33.935Z,24.0
2017-07-19T10:27:42.025Z,24.0
2017-07-19T10:28:50.115Z,24.0
2017-07-19T10:29:58.216Z,24.0
2017-07-19T10:31:06.291Z,24.0
2017-07-19T10:32:14.379Z,24.0
2017-07-19T10:33:22.469Z,24.0
2017-07-19T10:34:30.559Z,24.1
2017-07-19T10:35:38.650Z,24.0
2017-07-19T10:36:46.741Z,24.0
2017-07-19T10:37:54.826Z,24.0
2017-07-19T10:39:02.919Z,24.1
2017-07-19T10:40:11.007Z,24.0
2017-07-19T10:41:19.098Z,24.1
2017-07-19T10:42:27.187Z,24.0
2017-07-19T10:43:35.279Z,24.0
2017-07-19T10:44:43.368Z,24.0
2017-07-19T10:45:51.457Z,24.1
2017-07-19T10:46:59.549Z,24.1
2017-07-19T10:48:07.641Z,24.0
2017-07-19T10:49:15.725Z,24.1
2017-07-19T10:50:23.821Z,24.0
2017-07-19T10:51:31.906Z,24.1
2017-07-19T10:52:39.995Z,24.0
2017-07-19T10:53:48.086Z,24.0
2017-07-19T10:54:56.174Z,24.0
2017-07-19T10:56:04.266Z,24.1
2017-07-19T10:57:12.355Z,24.1
2017-07-19T10:58:20.441Z,24.1
2017-07-19T10:59:28.534Z,24.1
2017-07-19T11:00:36.622Z,24.1
2017-07-19T11:01:44.712Z,24.1
2017-07-19T11:02:52.803Z,24.1
2017-07-19T11:04:00.890Z,24.1
2017-07-19T11:05:08.986Z,24.1
2017-07-19T11:06:17.072Z,24.1
2017-07-19T11:07:25.162Z,24.2
2017-07-19T11:08:33.250Z,24.2
2017-07-19T11:09:41.339Z,24.2
2017-07-19T11:10:49.429Z,24.2
2017-07-19T11:11:57.521Z,24.2
2017-07-19T11:13:05.620Z,24.2
2017-07-19T11:14:13.700Z,24.2
2017-07-19T11:15:21.788Z,24.2
2017-07-19T11:16:29.878Z,24.2
2017-07-19T11:17:37.970Z,24.2
2017-07-19T11:18:46.060Z,24.2
2017-07-19T11:19:54.150Z,24.2
2017-07-19T11:21:02.236Z,24.2
2017-07-19T11:22:10.326Z,24.2
2017-07-19T11:23:18.417Z,24.2
2017-07-19T11:24:26.509Z,24.2
2017-07-19T11:25:34.599Z,24.2
2017-07-19T11:26:42.688Z,24.3
2017-07-19T11:27:50.777Z,24.2
2017-07-19T11:28:58.866Z,24.2
2017-07-19T11:30:06.982Z,24.2
2017-07-19T11:31:15.044Z,24.2
2017-07-19T11:32:23.136Z,24.3
2017-07-19T11:33:31.226Z,24.3
2017-07-19T11:34:39.317Z,24.3
2017-07-19T11:35:47.405Z,24.4
2017-07-19T11:36:55.496Z,24.3
2017-07-19T11:38:03.587Z,24.3
2017-07-19T11:39:11.675Z,24.4
2017-07-19T11:40:19.763Z,24.4
2017-07-19T11:41:27.854Z,24.4
2017-07-19T11:42:35.944Z,24.3
2017-07-19T11:43:44.035Z,24.3
2017-07-19T11:44:52.125Z,24.4
2017-07-19T11:46:00.215Z,24.3
2017-07-19T11:47:08.304Z,24.3
2017-07-19T11:48:16.393Z,24.4
2017-07-19T11:49:24.484Z,24.4
2017-07-19T11:50:32.573Z,24.4
2017-07-19T11:51:40.668Z,24.4
2017-07-19T11:52:48.753Z,24.4
2017-07-19T11:53:56.843Z,24.4
2017-07-19T11:55:04.941Z,24.4
2017-07-19T11:56:13.027Z,24.4
2017-07-19T11:57:21.116Z,24.4
2017-07-19T11:58:29.205Z,24.5
2017-07-19T11:59:37.299Z,24.3
2017-07-19T12:00:45.386Z,24.5
2017-07-19T12:01:53.480Z,24.3
2017-07-19T12:03:01.568Z,24.4
2017-07-19T12:04:09.656Z,24.4
2017-07-19T12:05:17.749Z,24.3
2017-07-19T12:06:25.837Z,24.4
2017-07-19T12:07:33.925Z,24.5
2017-07-19T12:08:42.018Z,24.5
2017-07-19T12:09:50.104Z,24.4
2017-07-19T12:10:58.194Z,24.4
2017-07-19T12:12:06.293Z,24.5
2017-07-19T12:13:14.376Z,24.5
2017-07-19T12:14:22.464Z,24.5
2017-07-19T12:15:30.558Z,24.5
2017-07-19T12:16:38.645Z,24.5
2017-07-19T12:17:46.733Z,24.5
2017-07-19T12:18:54.830Z,24.5
2017-07-19T12:20:02.927Z,24.5
2017-07-19T12:21:11.010Z,24.5
2017-07-19T12:22:19.102Z,24.5
2017-07-19T12:23:27.192Z,24.5
2017-07-19T12:24:35.280Z,24.6
2017-07-19T12:25:43.368Z,24.6
2017-07-19T12:26:51.459Z,24.6
2017-07-19T12:27:59.549Z,24.5
2017-07-19T12:29:07.638Z,24.5
2017-07-19T12:30:15.728Z,24.5
2017-07-19T12:31:23.820Z,24.5
2017-07-19T12:32:31.909Z,24.6
2017-07-19T12:33:40.004Z,24.6
2017-07-19T12:34:48.087Z,24.5
2017-07-19T12:35:56.177Z,24.6
2017-07-19T12:37:04.268Z,24.6
2017-07-19T12:38:12.361Z,24.6
2017-07-19T12:39:20.446Z,24.6
2017-07-19T12:40:28.539Z,24.6
2017-07-19T12:41:36.628Z,24.6
2017-07-19T12:42:44.721Z,24.6
2017-07-19T12:43:52.809Z,24.6
2017-07-19T12:45:01.123Z,24.6
2017-07-19T12:46:08.986Z,24.6
2017-07-19T12:47:17.076Z,24.6
2017-07-19T12:48:25.166Z,24.6
2017-07-19T12:49:33.261Z,24.6
2017-07-19T12:50:41.350Z,24.6
2017-07-19T12:51:49.438Z,24.6
2017-07-19T12:52:57.525Z,24.5
2017-07-19T12:54:05.642Z,24.5
2017-07-19T12:55:13.709Z,24.6
2017-07-19T12:56:21.797Z,24.6
2017-07-19T12:57:29.887Z,24.6
2017-07-19T12:58:37.978Z,24.6
2017-07-19T12:59:46.068Z,24.6
2017-07-19T13:00:54.159Z,24.6
2017-07-19T13:02:02.249Z,24.6
2017-07-19T13:03:10.342Z,24.6
2017-07-19T13:04:18.429Z,24.7
2017-07-19T13:05:26.518Z,24.6
2017-07-19T13:06:34.613Z,24.7
2017-07-19T13:07:42.703Z,24.6
2017-07-19T13:08:50.794Z,24.6
2017-07-19T13:09:58.885Z,24.6
2017-07-19T13:11:06.976Z,24.6
2017-07-19T13:12:15.066Z,24.6
2017-07-19T13:13:23.163Z,24.6
2017-07-19T13:14:31.253Z,24.6
2017-07-19T13:15:39.341Z,24.6
2017-07-19T13:16:47.487Z,24.6
2017-07-19T13:17:55.521Z,24.7
2017-07-19T13:19:03.613Z,24.6
2017-07-19T13:20:11.704Z,24.7
2017-07-19T13:21:19.792Z,24.8
2017-07-19T13:22:27.883Z,24.7
2017-07-19T13:23:35.971Z,24.6
2017-07-19T13:24:44.061Z,24.7
2017-07-19T13:25:52.154Z,24.6
2017-07-19T13:27:00.243Z,24.7
2017-07-19T13:28:08.339Z,24.7
2017-07-19T13:29:16.428Z,24.7
2017-07-19T13:30:24.517Z,24.7
2017-07-19T13:31:32.610Z,24.7
2017-07-19T13:32:40.698Z,24.7
2017-07-19T13:33:48.788Z,24.7
2017-07-19T13:34:56.877Z,24.7
2017-07-19T13:36:04.970Z,24.7
2017-07-19T13:37:13.059Z,24.7
2017-07-19T13:38:21.148Z,24.8
2017-07-19T13:39:29.239Z,24.8
2017-07-19T13:40:37.326Z,24.8
2017-07-19T13:41:45.421Z,24.7
2017-07-19T13:42:53.509Z,24.8
2017-07-19T13:44:01.599Z,24.8
2017-07-19T13:45:09.694Z,24.7
2017-07-19T13:46:17.782Z,24.8
2017-07-19T13:47:25.871Z,24.8
2017-07-19T13:48:33.960Z,24.7
2017-07-19T13:49:42.051Z,24.8
2017-07-19T13:50:50.139Z,24.8
2017-07-19T13:51:58.230Z,24.8
2017-07-19T13:53:06.321Z,24.8
2017-07-19T13:54:14.412Z,24.8
2017-07-19T13:55:22.502Z,24.8
2017-07-19T13:56:30.591Z,24.8
2017-07-19T13:57:38.678Z,24.8
2017-07-19T13:58:46.771Z,24.8
2017-07-19T13:59:54.857Z,24.8
2017-07-19T14:01:02.949Z,24.8
2017-07-19T14:02:11.038Z,24.8
2017-07-19T14:03:19.131Z,24.8
2017-07-19T14:04:27.220Z,24.8
2017-07-19T14:05:35.311Z,24.9
2017-07-19T14:06:43.401Z,24.8
2017-07-19T14:07:51.492Z,24.8
2017-07-19T14:08:59.580Z,24.8
2017-07-19T14:10:07.670Z,24.8
2017-07-19T14:11:15.759Z,24.9
2017-07-19T14:12:23.848Z,24.8
2017-07-19T14:13:31.942Z,24.9
2017-07-19T14:14:40.031Z,24.8
2017-07-19T14:15:48.123Z,24.9
2017-07-19T14:16:56.212Z,24.9
2017-07-19T14:18:04.303Z,24.8
2017-07-19T14:19:12.391Z,24.9
2017-07-19T14:20:20.481Z,24.9
2017-07-19T14:21:28.570Z,24.8
2017-07-19T14:22:36.661Z,24.8
2017-07-19T14:23:44.775Z,24.8
2017-07-19T14:24:52.840Z,24.8
2017-07-19T14:26:00.929Z,24.9
2017-07-19T14:27:09.030Z,25.0
2017-07-19T14:28:17.117Z,24.9
2017-07-19T14:29:25.207Z,24.8
2017-07-19T14:30:33.294Z,24.9
2017-07-19T14:31:41.386Z,24.9
2017-07-19T14:32:49.476Z,24.9
2017-07-19T14:33:57.573Z,24.8
2017-07-19T14:35:05.658Z,24.9
2017-07-19T14:36:13.747Z,24.9
2017-07-19T14:37:21.840Z,24.9
2017-07-19T14:38:29.928Z,24.9
2017-07-19T14:39:38.016Z,24.8
2017-07-19T14:40:46.110Z,24.9
2017-07-19T14:41:54.199Z,24.9
2017-07-19T14:43:02.289Z,24.9
2017-07-19T14:44:10.376Z,24.9
2017-07-19T14:45:18.471Z,24.9
2017-07-19T14:46:26.560Z,24.9
2017-07-19T14:47:34.649Z,24.9
2017-07-19T14:48:42.737Z,24.9
2017-07-19T14:49:50.829Z,24.9
2017-07-19T14:50:58.920Z,24.9
2017-07-19T14:52:07.008Z,24.9
2017-07-19T14:53:15.107Z,24.9
2017-07-19T14:54:23.198Z,25.0
2017-07-19T14:55:31.286Z,24.9
2017-07-19T14:56:39.377Z,25.0
2017-07-19T14:57:47.467Z,24.9
2017-07-19T14:58:55.554Z,24.9
2017-07-19T15:00:03.649Z,24.9
2017-07-19T15:01:11.738Z,25.0
2017-07-19T15:02:19.831Z,24.9
2017-07-19T15:03:27.921Z,25.0
2017-07-19T15:04:36.006Z,25.0
2017-07-19T15:05:44.100Z,25.0